createdAt,value
2022-09-15T00:04:03.993Z,2.15
2022-09-15T00:09:06.959Z,1.90
2022-09-15T00:14:09.090Z,1.50
2022-09-15T00:19:11.653Z,1.58
2022-09-15T00:24:14.359Z,1.83
2022-09-15T00:29:16.202Z,1.85
2022-09-15T00:34:17.675Z,1.50
2022-09-15T00:39:19.196Z,1.92
2022-09-15T00:44:23.378Z,1.85
2022-09-15T00:49:30.332Z,1.90
2022-09-15T00:54:39.670Z,1.77
2022-09-15T00:59:42.594Z,2.30
2022-09-15T01:04:45.355Z,3.17
2022-09-15T01:09:57.730Z,2.00
2022-09-15T01:15:02.708Z,2.20
2022-09-15T01:20:47.081Z,2.63
2022-09-15T01:25:49.283Z,1.80
2022-09-15T01:31:14.244Z,2.85
2022-09-15T01:36:35.965Z,1.98
2022-09-15T01:41:42.940Z,2.25
2022-09-15T01:46:48.678Z,2.28
2022-09-15T01:51:53.543Z,2.05
2022-09-15T01:56:57.308Z,2.50
2022-09-15T02:02:12.737Z,2.50
2022-09-15T02:07:20.508Z,1.98
2022-09-15T02:12:42.260Z,2.15
2022-09-15T02:17:54.209Z,2.03
2022-09-15T02:23:01.486Z,1.92
2022-09-15T02:28:07.836Z,2.20
2022-09-15T02:33:19.697Z,2.55
2022-09-15T02:38:21.646Z,2.45
2022-09-15T02:43:23.840Z,2.80
2022-09-15T02:48:25.323Z,2.63
2022-09-15T02:53:28.163Z,2.22
2022-09-15T02:58:31.217Z,2.80
2022-09-15T03:03:34.961Z,2.60
2022-09-15T03:08:37.028Z,2.53
2022-09-15T03:13:39.449Z,2.40
2022-09-15T03:18:41.551Z,2.13
2022-09-15T03:23:43.083Z,2.53
2022-09-15T03:28:44.938Z,2.40
2022-09-15T03:33:49.169Z,2.08
2022-09-15T03:38:51.923Z,2.40
2022-09-15T03:43:54.103Z,2.17
2022-09-15T03:48:55.994Z,2.25
2022-09-15T03:53:57.469Z,1.98
2022-09-15T03:59:01.986Z,2.03
2022-09-15T04:04:03.469Z,2.08
2022-09-15T04:09:05.056Z,2.10
2022-09-15T04:14:06.823Z,1.80
2022-09-15T04:19:09.134Z,1.52
2022-09-15T04:24:10.699Z,1.77
2022-09-15T04:29:15.704Z,2.05
2022-09-15T04:34:18.212Z,1.85
2022-09-15T04:39:20.694Z,2.17
2022-09-15T04:44:22.395Z,1.80
2022-09-15T04:49:24.747Z,1.52
2022-09-15T04:54:27.162Z,2.00
2022-09-15T04:59:30.122Z,1.42
2022-09-15T05:04:32.595Z,1.77
2022-09-15T05:09:34.624Z,2.20
2022-09-15T05:14:36.860Z,2.10
2022-09-15T05:19:38.730Z,2.05
2022-09-15T05:24:40.447Z,1.80
2022-09-15T05:29:43.379Z,2.13
2022-09-15T05:34:44.932Z,2.17
2022-09-15T05:39:46.446Z,1.60
2022-09-15T05:44:47.956Z,2.00
2022-09-15T05:49:49.719Z,2.03
2022-09-15T05:54:54.603Z,1.73
2022-09-15T05:59:58.947Z,1.63
2022-09-15T06:05:00.776Z,1.70
2022-09-15T06:10:03.975Z,1.70
2022-09-15T06:15:07.297Z,2.20
2022-09-15T06:20:09.947Z,1.83
2022-09-15T06:25:13.568Z,1.40
2022-09-15T06:30:15.462Z,1.77
2022-09-15T06:35:17.370Z,1.45
2022-09-15T06:40:19.701Z,1.27
2022-09-15T06:45:21.995Z,1.55
2022-09-15T06:50:23.769Z,1.20
2022-09-15T06:55:25.356Z,1.38
2022-09-15T07:00:28.468Z,1.27
2022-09-15T07:05:29.977Z,1.42
2022-09-15T07:10:32.176Z,1.20
2022-09-15T07:15:34.004Z,0.98
2022-09-15T07:20:40.630Z,1.00
2022-09-15T07:25:44.859Z,1.20
2022-09-15T07:30:51.311Z,1.00
2022-09-15T07:35:53.286Z,1.00
2022-09-15T07:40:54.995Z,1.65
2022-09-15T07:45:58.104Z,1.17
2022-09-15T07:51:00.053Z,1.23
2022-09-15T07:56:01.705Z,1.30
2022-09-15T08:01:07.325Z,0.75
2022-09-15T08:06:10.657Z,0.90
2022-09-15T08:11:19.208Z,0.93
2022-09-15T08:16:22.966Z,1.17
2022-09-15T08:21:24.792Z,1.25
2022-09-15T08:26:28.642Z,0.88
2022-09-15T08:31:30.246Z,0.95
2022-09-15T08:36:33.149Z,1.00
2022-09-15T08:41:53.700Z,0.90
2022-09-15T08:47:19.584Z,0.80
2022-09-15T08:52:46.723Z,1.33
2022-09-15T08:57:48.830Z,1.10
2022-09-15T09:03:13.130Z,0.73
2022-09-15T09:08:38.042Z,0.68
2022-09-15T09:13:50.472Z,0.65
2022-09-15T09:19:22.850Z,1.00
2022-09-15T09:24:32.897Z,1.13
2022-09-15T09:29:39.934Z,0.70
2022-09-15T09:34:54.331Z,0.38
2022-09-15T09:39:56.204Z,0.55
2022-09-15T09:44:58.050Z,0.50
2022-09-15T09:49:59.854Z,0.57
2022-09-15T09:55:03.042Z,0.73
2022-09-15T10:00:04.919Z,0.70
2022-09-15T10:05:08.438Z,0.90
2022-09-15T10:10:21.812Z,0.82
2022-09-15T10:15:25.962Z,0.90
2022-09-15T10:20:32.666Z,0.85
2022-09-15T10:25:58.205Z,0.90
2022-09-15T10:31:05.261Z,1.52
2022-09-15T10:36:11.827Z,0.60
2022-09-15T10:41:34.952Z,0.70
2022-09-15T10:46:56.455Z,0.65
2022-09-15T10:52:32.387Z,0.40
2022-09-15T10:57:52.004Z,0.70
2022-09-15T11:03:22.262Z,0.70
2022-09-15T11:08:46.338Z,0.70
2022-09-15T11:13:56.957Z,0.60
2022-09-15T11:18:58.682Z,0.70
2022-09-15T11:24:17.261Z,0.35
2022-09-15T11:29:42.324Z,0.63
2022-09-15T11:34:54.639Z,0.45
2022-09-15T11:40:13.652Z,0.75
2022-09-15T11:45:45.379Z,0.90
2022-09-15T11:50:51.581Z,0.50
2022-09-15T11:56:30.731Z,0.60
2022-09-15T12:02:09.580Z,0.70
2022-09-15T12:07:20.045Z,0.50
2022-09-15T12:12:22.715Z,0.60
2022-09-15T12:17:40.167Z,0.55
2022-09-15T12:22:43.508Z,0.60
2022-09-15T12:33:54.695Z,0.70
2022-09-15T12:38:56.558Z,1.08
2022-09-15T12:44:15.057Z,1.20
2022-09-15T12:49:18.955Z,0.88
2022-09-15T12:54:28.551Z,0.70
2022-09-15T13:04:54.663Z,0.70
2022-09-15T13:10:08.220Z,0.75
2022-09-15T13:15:16.189Z,1.13
2022-09-15T13:20:25.871Z,0.90
2022-09-15T13:25:30.197Z,0.88
2022-09-15T13:31:05.397Z,1.10
2022-09-15T13:36:15.967Z,0.82
2022-09-15T13:41:36.275Z,1.00
2022-09-15T13:47:16.939Z,1.08
2022-09-15T13:58:54.466Z,1.00
2022-09-15T14:02:45.606Z,1.30
2022-09-15T14:08:15.241Z,0.90
2022-09-15T14:13:19.970Z,0.90
2022-09-15T14:18:21.476Z,0.90
2022-09-15T14:23:22.920Z,1.15
2022-09-15T14:28:34.606Z,0.70
2022-09-15T14:33:39.782Z,0.82
2022-09-15T14:38:41.263Z,1.55
2022-09-15T14:43:42.886Z,0.80
2022-09-15T14:48:44.587Z,0.70
2022-09-15T14:53:50.970Z,0.82
2022-09-15T14:59:04.225Z,0.93
2022-09-15T15:04:11.576Z,0.90
2022-09-15T15:09:21.516Z,1.35
2022-09-15T15:19:38.661Z,1.00
2022-09-15T15:24:43.397Z,0.60
2022-09-15T15:29:48.016Z,1.00
2022-09-15T15:35:01.166Z,0.80
2022-09-15T15:40:07.226Z,0.98
2022-09-15T15:45:09.228Z,1.40
2022-09-15T15:50:20.746Z,1.00
2022-09-15T15:55:24.958Z,0.98
2022-09-15T16:00:32.632Z,0.70
2022-09-15T16:05:34.501Z,1.25
2022-09-15T16:10:43.745Z,1.45
2022-09-15T16:15:46.021Z,1.25
2022-09-15T16:20:47.670Z,1.08
2022-09-15T16:26:01.542Z,1.10
2022-09-15T16:31:03.092Z,1.00
2022-09-15T16:36:08.075Z,0.93
2022-09-15T16:41:15.376Z,1.00
2022-09-15T16:46:17.246Z,0.90
2022-09-15T16:51:29.507Z,0.90
2022-09-15T16:56:32.273Z,1.00
2022-09-15T17:01:33.795Z,0.70
2022-09-15T17:06:35.330Z,1.23
2022-09-15T17:11:36.849Z,0.80
2022-09-15T17:16:38.655Z,0.90
2022-09-15T17:21:47.147Z,1.02
2022-09-15T17:26:48.647Z,1.00
2022-09-15T17:31:50.140Z,1.20
2022-09-15T17:36:51.761Z,0.98
2022-09-15T17:41:53.344Z,0.85
2022-09-15T17:46:55.371Z,1.63
2022-09-15T17:51:56.890Z,1.60
2022-09-15T17:56:58.432Z,1.70
2022-09-15T18:01:59.936Z,1.73
2022-09-15T18:07:01.418Z,1.85
2022-09-15T18:12:03.332Z,1.90
2022-09-15T18:17:04.895Z,1.52
2022-09-15T18:22:06.619Z,1.60
2022-09-15T18:27:08.178Z,2.00
2022-09-15T18:32:09.700Z,2.50
2022-09-15T18:37:11.168Z,2.78
2022-09-15T18:42:12.827Z,2.70
2022-09-15T18:47:14.387Z,2.97
2022-09-15T18:52:15.819Z,1.90
2022-09-15T18:57:17.434Z,1.48
2022-09-15T19:02:19.023Z,1.20
2022-09-15T19:07:22.308Z,1.73
2022-09-15T19:12:26.579Z,2.00
2022-09-15T19:17:28.065Z,2.10
2022-09-15T19:22:29.619Z,1.98
2022-09-15T19:27:31.264Z,1.50
2022-09-15T19:32:33.797Z,1.70
2022-09-15T19:37:37.311Z,1.90
2022-09-15T19:42:40.277Z,1.70
2022-09-15T19:47:41.851Z,2.13
2022-09-15T19:52:43.576Z,1.20
2022-09-15T19:57:46.333Z,1.30
2022-09-15T20:02:48.522Z,1.50
2022-09-15T20:07:50.379Z,1.35
2022-09-15T20:12:52.069Z,1.00
2022-09-15T20:17:53.585Z,1.77
2022-09-15T20:22:55.231Z,1.10
2022-09-15T20:27:56.734Z,1.08
2022-09-15T20:32:58.243Z,0.68
2022-09-15T20:37:59.800Z,1.00
2022-09-15T20:43:01.243Z,1.50
2022-09-15T20:48:03.321Z,1.00
2022-09-15T20:53:04.847Z,0.80
2022-09-15T20:58:07.903Z,0.70
2022-09-15T21:03:09.440Z,0.65
2022-09-15T21:08:11.717Z,1.08
2022-09-15T21:13:13.172Z,1.10
2022-09-15T21:18:14.632Z,1.38
2022-09-15T21:23:16.356Z,1.10
2022-09-15T21:28:17.812Z,1.45
2022-09-15T21:33:20.875Z,1.02
2022-09-15T21:38:22.363Z,1.10
2022-09-15T21:43:23.838Z,1.10
2022-09-15T21:48:27.152Z,0.90
2022-09-15T21:53:29.267Z,1.30
2022-09-15T21:58:42.400Z,1.00
2022-09-15T22:03:49.495Z,0.75
2022-09-15T22:08:51.013Z,1.55
2022-09-15T22:13:52.731Z,1.30
2022-09-15T22:18:55.574Z,0.82
2022-09-15T22:23:59.431Z,0.82
2022-09-15T22:29:01.971Z,1.67
2022-09-15T22:34:04.245Z,1.20
2022-09-15T22:39:06.322Z,0.70
2022-09-15T22:44:17.825Z,1.27
2022-09-15T22:49:19.755Z,0.70
2022-09-15T22:54:21.276Z,0.77
2022-09-15T22:59:22.863Z,1.00
2022-09-15T23:04:24.423Z,1.15
2022-09-15T23:09:26.334Z,1.42
2022-09-15T23:14:27.824Z,1.33
2022-09-15T23:19:29.291Z,0.77
2022-09-15T23:24:32.796Z,0.60
2022-09-15T23:29:34.261Z,0.90
2022-09-15T23:34:35.812Z,1.00
2022-09-15T23:39:37.256Z,1.13
2022-09-15T23:44:38.731Z,1.00
2022-09-15T23:49:40.271Z,1.20
2022-09-15T23:54:41.851Z,1.05
2022-09-15T23:59:43.328Z,1.20
